Time;durP1;ratioP1;P1;durP2;ratioP2;P2;SDS_P1;SDS_P2;PMS_P1;PMS_P2;Temp;Humidity;BMP_temperature;BMP_pressure;BME280_temperature;BME280_humidity;BME280_pressure;Samples;Min_cycle;Max_cycle;Signal;HPM_P1;HPM_P2
2022/07/31 00:04:41;;;;;;;1.17;0.95;;;;;;;19.53;100.00;101716.09;10481934;28;20059;-74
2022/07/31 00:09:43;;;;;;;0.40;0.35;;;;;;;19.51;100.00;101713.50;10504843;28;20071;-74
2022/07/31 00:14:55;;;;;;;0.52;0.43;;;;;;;19.48;100.00;101711.75;10507667;28;20458;-74
2022/07/31 00:19:56;;;;;;;0.68;0.43;;;;;;;19.20;100.00;101710.81;10486664;28;20049;-74
2022/07/31 00:24:58;;;;;;;0.20;0.20;;;;;;;19.17;100.00;101711.69;10492571;28;20045;-74
2022/07/31 00:30:00;;;;;;;0.20;0.10;;;;;;;19.08;100.00;101708.16;10476005;28;20129;-74
2022/07/31 00:35:01;;;;;;;0.38;0.22;;;;;;;18.94;100.00;101710.72;10470679;28;20103;-74
2022/07/31 00:40:05;;;;;;;1.25;0.55;;;;;;;18.92;100.00;101702.88;10472625;28;20087;-74
2022/07/31 00:45:08;;;;;;;0.20;0.13;;;;;;;18.83;100.00;101697.59;10492801;28;20601;-74
2022/07/31 00:50:14;;;;;;;0.20;0.20;;;;;;;18.80;100.00;101693.22;10477002;28;20418;-74
2022/07/31 00:55:15;;;;;;;0.30;0.30;;;;;;;18.89;100.00;101684.56;10507441;28;20380;-74
2022/07/31 01:00:17;;;;;;;0.73;0.40;;;;;;;19.02;100.00;101675.91;10516254;28;20506;-74
2022/07/31 01:05:19;;;;;;;0.25;0.25;;;;;;;19.03;100.00;101671.59;10479224;28;20039;-74
2022/07/31 01:11:02;;;;;;;0.10;0.10;;;;;;;19.05;100.00;101674.19;10501996;28;20036;-74
2022/07/31 01:16:14;;;;;;;0.80;0.80;;;;;;;19.00;100.00;101672.47;10472906;28;20478;-74
2022/07/31 01:21:21;;;;;;;0.20;0.20;;;;;;;19.00;100.00;101667.25;10490972;28;20609;-74
2022/07/31 01:26:41;;;;;;;0.65;0.38;;;;;;;18.99;100.00;101673.31;10501091;28;20435;-74
2022/07/31 01:32:03;;;;;;;0.13;0.13;;;;;;;18.93;100.00;101681.13;10493663;28;20055;-74
2022/07/31 01:37:20;;;;;;;0.50;0.50;;;;;;;18.74;100.00;101669.72;10479894;28;20049;-74
2022/07/31 01:42:24;;;;;;;0.30;0.30;;;;;;;18.71;100.00;101667.06;10462441;28;20052;-74
2022/07/31 01:47:29;;;;;;;0.57;0.52;;;;;;;18.75;100.00;101652.31;10475148;28;20037;-74
2022/07/31 01:52:33;;;;;;;1.77;0.70;;;;;;;18.58;100.00;101647.03;10506742;28;20059;-74
2022/07/31 01:57:37;;;;;;;0.25;0.25;;;;;;;18.61;100.00;101644.44;10503538;28;20052;-74
2022/07/31 02:02:41;;;;;;;0.85;0.52;;;;;;;18.52;100.00;101647.84;10499410;28;20503;-74
2022/07/31 02:07:45;;;;;;;0.63;0.50;;;;;;;18.62;100.00;101641.81;10505751;28;20093;-74
2022/07/31 02:12:50;;;;;;;0.90;0.50;;;;;;;18.44;100.00;101633.91;10506932;28;20049;-74
2022/07/31 02:17:53;;;;;;;0.50;0.40;;;;;;;18.42;100.00;101640.88;10498560;28;20040;-73
2022/07/31 02:22:57;;;;;;;0.40;0.30;;;;;;;18.38;100.00;101626.94;10467071;28;20048;-74
2022/07/31 02:28:01;;;;;;;0.93;0.45;;;;;;;18.43;100.00;101632.19;10496525;28;20051;-74
2022/07/31 02:33:05;;;;;;;1.38;0.60;;;;;;;18.55;100.00;101629.63;10496037;28;20162;-74
2022/07/31 02:38:08;;;;;;;0.38;0.20;;;;;;;18.39;100.00;101621.72;10490387;28;20040;-74
2022/07/31 02:43:26;;;;;;;3.03;0.43;;;;;;;18.56;100.00;101631.38;10498993;28;20041;-74
2022/07/31 02:48:30;;;;;;;1.02;0.77;;;;;;;18.53;100.00;101623.50;10505607;28;20097;-74
2022/07/31 02:53:36;;;;;;;0.52;0.50;;;;;;;18.60;100.00;101622.66;10499686;28;20048;-74
2022/07/31 02:58:42;;;;;;;0.25;0.20;;;;;;;18.77;100.00;101621.88;10494178;28;20047;-74
2022/07/31 03:04:14;;;;;;;0.28;0.17;;;;;;;18.68;100.00;101618.34;10473615;28;20056;-74
2022/07/31 03:09:15;;;;;;;1.23;0.60;;;;;;;18.55;100.00;101606.13;10481634;28;20076;-74
2022/07/31 03:14:20;;;;;;;0.10;0.10;;;;;;;18.48;100.00;101601.75;10494755;28;20044;-74
2022/07/31 03:19:23;;;;;;;0.30;0.30;;;;;;;18.58;100.00;101594.84;10483262;28;20055;-74
2022/07/31 03:24:26;;;;;;;1.45;0.75;;;;;;;18.55;100.00;101580.03;10480353;28;20041;-74
2022/07/31 03:29:39;;;;;;;7.43;0.80;;;;;;;18.55;100.00;101580.03;10480897;28;20051;-74
2022/07/31 03:34:45;;;;;;;0.20;0.20;;;;;;;18.57;100.00;101578.31;10473148;28;20044;-74
2022/07/31 03:39:46;;;;;;;0.22;0.13;;;;;;;18.54;100.00;101568.72;10489347;28;20056;-74
2022/07/31 03:44:48;;;;;;;1.05;0.57;;;;;;;18.53;100.00;101555.66;10483143;28;20061;-74
2022/07/31 03:49:52;;;;;;;0.45;0.32;;;;;;;18.59;100.00;101554.81;10489810;28;20507;-74
2022/07/31 03:54:54;;;;;;;0.22;0.22;;;;;;;18.64;100.00;101553.09;10489208;28;20610;-74
2022/07/31 03:59:58;;;;;;;1.85;0.88;;;;;;;18.67;100.00;101558.34;10480760;28;20497;-74
2022/07/31 04:05:02;;;;;;;0.13;0.10;;;;;;;18.62;100.00;101563.53;10482641;28;20130;-74
2022/07/31 04:10:11;;;;;;;0.30;0.30;;;;;;;18.43;100.00;101574.78;10479192;28;20037;-74
2022/07/31 04:15:12;;;;;;;0.80;0.40;;;;;;;18.44;100.00;101576.50;10483347;28;20040;-74
2022/07/31 04:20:14;;;;;;;0.38;0.38;;;;;;;18.62;100.00;101566.16;10478705;28;20055;-74
2022/07/31 04:25:16;;;;;;;0.40;0.20;;;;;;;18.59;100.00;101560.91;10492190;28;20059;-74
2022/07/31 04:30:37;;;;;;;0.10;0.10;;;;;;;18.69;100.00;101567.91;10493018;28;20044;-74
2022/07/31 04:35:39;;;;;;;1.65;0.40;;;;;;;18.71;100.00;101567.91;10472743;28;20046;-74
2022/07/31 04:40:41;;;;;;;0.52;0.40;;;;;;;18.66;100.00;101567.03;10496768;28;20082;-74
2022/07/31 04:45:43;;;;;;;1.05;0.40;;;;;;;18.44;100.00;101569.56;10496467;28;20044;-74
2022/07/31 04:50:45;;;;;;;0.57;0.55;;;;;;;18.43;100.00;101559.13;10495990;28;20038;-74
2022/07/31 04:56:32;;;;;;;0.85;0.50;;;;;;;18.36;100.00;101568.66;10496175;28;20052;-74
2022/07/31 05:01:09;;;;;;;1.38;0.47;;;;;;;18.35;100.00;101573.00;10486950;28;20124;-74
2022/07/31 05:06:12;;;;;;;0.55;0.22;;;;;;;18.32;100.00;101573.00;10480711;28;20045;-74
2022/07/31 05:11:23;;;;;;;2.10;0.70;;;;;;;18.52;100.00;101572.19;10475656;28;20051;-73
2022/07/31 05:16:26;;;;;;;0.77;0.55;;;;;;;18.59;100.00;101576.56;10490886;28;20051;-74
2022/07/31 05:21:29;;;;;;;0.20;0.20;;;;;;;18.64;100.00;101577.47;10474602;28;20048;-74
2022/07/31 05:26:49;;;;;;;1.23;0.82;;;;;;;18.77;100.00;101573.13;10497342;28;20139;-74
2022/07/31 05:31:51;;;;;;;1.38;0.98;;;;;;;18.89;100.00;101569.69;10490453;28;20052;-75
2022/07/31 05:37:11;;;;;;;0.77;0.70;;;;;;;18.96;100.00;101561.03;10478975;28;20056;-74
2022/07/31 05:42:14;;;;;;;0.70;0.70;;;;;;;19.05;100.00;101551.47;10474442;28;20044;-74
2022/07/31 05:47:37;;;;;;;0.38;0.38;;;;;;;19.33;100.00;101571.50;10493924;28;20461;-75
2022/07/31 05:52:43;;;;;;;0.30;0.30;;;;;;;19.38;100.00;101573.25;10515424;28;20526;-74
2022/07/31 05:57:56;;;;;;;5.50;0.50;;;;;;;19.53;100.00;101572.38;10463338;28;20106;-75
2022/07/31 06:02:58;;;;;;;2.17;1.10;;;;;;;19.73;100.00;101574.97;10495771;28;20420;-74
2022/07/31 06:08:25;;;;;;;1.05;0.98;;;;;;;19.81;100.00;101586.28;10491256;28;20056;-74
2022/07/31 06:13:29;;;;;;;2.05;1.05;;;;;;;19.99;100.00;101588.03;10505688;28;20040;-75
2022/07/31 06:18:36;;;;;;;0.38;0.38;;;;;;;20.03;100.00;101583.66;10520482;28;20044;-74
2022/07/31 06:23:38;;;;;;;1.63;1.08;;;;;;;20.02;100.00;101593.25;10507092;28;20044;-74
2022/07/31 06:28:55;;;;;;;1.50;1.02;;;;;;;20.23;100.00;101596.69;10501732;28;20056;-74
2022/07/31 06:33:57;;;;;;;0.50;0.50;;;;;;;20.15;100.00;101601.06;10511585;28;20048;-75
2022/07/31 06:39:05;;;;;;;1.20;0.87;;;;;;;20.17;100.00;101600.19;10461516;28;20048;-75
2022/07/31 06:44:31;;;;;;;1.52;0.98;;;;;;;20.14;100.00;101602.81;10500156;28;20094;-75
2022/07/31 06:49:53;;;;;;;1.30;1.05;;;;;;;20.28;100.00;101595.78;10515006;28;20127;-75
2022/07/31 06:54:57;;;;;;;3.00;0.88;;;;;;;20.34;100.00;101599.25;10523216;28;20094;-74
2022/07/31 07:00:00;;;;;;;3.75;1.10;;;;;;;20.33;100.00;101587.03;10484236;28;20040;-74
2022/07/31 07:05:15;;;;;;;2.25;1.17;;;;;;;20.39;100.00;101579.16;10489644;28;20036;-74
2022/07/31 07:10:20;;;;;;;1.77;1.23;;;;;;;20.36;100.00;101576.59;10487207;28;20041;-74
2022/07/31 07:15:33;;;;;;;1.90;1.42;;;;;;;20.32;100.00;101573.09;10490111;28;20045;-74
2022/07/31 07:20:35;;;;;;;1.67;1.05;;;;;;;20.49;100.00;101573.03;10466679;28;20068;-75
2022/07/31 07:25:37;;;;;;;1.63;1.25;;;;;;;20.23;100.00;101576.59;10468362;28;20076;-74
2022/07/31 07:30:43;;;;;;;3.88;1.60;;;;;;;20.05;100.00;101568.84;10481557;28;20044;-75
2022/07/31 07:35:46;;;;;;;4.63;2.35;;;;;;;20.16;100.00;101564.41;10466525;28;20052;-75
2022/07/31 07:40:51;;;;;;;2.85;1.73;;;;;;;20.19;100.00;101556.56;10475485;28;20046;-75
2022/07/31 07:45:53;;;;;;;2.53;1.20;;;;;;;20.18;100.00;101561.81;10478281;28;20131;-75
2022/07/31 07:50:55;;;;;;;1.23;1.08;;;;;;;20.41;100.00;101559.09;10465053;28;20040;-75
2022/07/31 07:56:09;;;;;;;2.05;1.02;;;;;;;20.52;100.00;101562.53;10473534;28;20045;-75
2022/07/31 08:01:30;;;;;;;1.95;1.13;;;;;;;20.50;100.00;101568.66;10501923;28;20044;-74
2022/07/31 08:06:42;;;;;;;2.22;1.08;;;;;;;20.24;100.00;101578.34;10495999;28;20071;-74
2022/07/31 08:11:44;;;;;;;1.05;0.65;;;;;;;20.51;100.00;101576.50;10497932;28;20045;-74
2022/07/31 08:16:55;;;;;;;2.00;1.25;;;;;;;20.71;100.00;101567.69;10492226;28;20056;-74
2022/07/31 08:21:58;;;;;;;2.78;1.60;;;;;;;20.39;100.00;101571.31;10493283;28;20079;-73
2022/07/31 08:32:24;;;;;;;1.73;0.93;;;;;;;20.55;100.00;101557.28;10486253;28;20442;-74
2022/07/31 08:37:31;;;;;;;3.40;0.77;;;;;;;20.33;100.00;101571.34;10495012;28;20056;-73
2022/07/31 08:42:55;;;;;;;1.73;1.08;;;;;;;20.69;100.00;101565.06;10479395;28;20705;-76
2022/07/31 08:48:04;;;;;;;9.32;1.48;;;;;;;20.66;100.00;101562.47;10495937;28;20446;-76
2022/07/31 08:53:15;;;;;;;1.88;1.05;;;;;;;20.56;100.00;101552.91;10497130;28;20051;-76
2022/07/31 08:58:30;;;;;;;1.35;1.13;;;;;;;20.44;100.00;101559.97;10500602;28;20044;-76
2022/07/31 09:03:37;;;;;;;3.22;1.10;;;;;;;20.60;100.00;101557.25;10510028;28;20083;-77
2022/07/31 09:08:40;;;;;;;2.28;2.08;;;;;;;21.28;100.00;101553.31;10498503;28;20048;-76
2022/07/31 09:13:54;;;;;;;2.20;1.10;;;;;;;21.16;100.00;101552.56;10483147;28;20202;-76
2022/07/31 09:19:44;;;;;;;1.13;1.02;;;;;;;21.67;100.00;101546.88;10488716;28;20052;-76
2022/07/31 09:25:15;;;;;;;1.27;0.73;;;;;;;21.33;100.00;101543.69;10490409;28;20118;-76
2022/07/31 09:30:17;;;;;;;3.53;1.13;;;;;;;21.32;100.00;101544.56;10473567;28;20090;-74
2022/07/31 09:35:27;;;;;;;0.95;0.85;;;;;;;21.45;100.00;101546.19;10486876;28;20066;-75
2022/07/31 09:40:37;;;;;;;0.73;0.47;;;;;;;21.31;100.00;101543.69;10490388;28;20090;-75
2022/07/31 09:46:26;;;;;;;0.75;0.52;;;;;;;21.12;100.00;101542.97;10491555;28;20057;-74
2022/07/31 09:51:43;;;;;;;1.38;0.80;;;;;;;20.91;100.00;101550.13;10495703;22;20063;-76
2022/07/31 09:56:49;;;;;;;0.68;0.68;;;;;;;21.05;100.00;101551.75;10473590;28;20181;-75
2022/07/31 10:01:52;;;;;;;0.60;0.57;;;;;;;21.34;100.00;101554.16;10511218;28;20031;-76
2022/07/31 10:06:55;;;;;;;2.28;1.17;;;;;;;21.18;100.00;101547.28;10527921;28;20437;-76
2022/07/31 10:11:57;;;;;;;0.60;0.60;;;;;;;21.08;100.00;101546.50;10515684;28;20036;-75
2022/07/31 10:17:03;;;;;;;1.83;1.08;;;;;;;21.03;100.00;101548.31;10517000;28;20222;-76
2022/07/31 10:22:20;;;;;;;1.35;1.00;;;;;;;21.21;100.00;101548.16;10512687;28;20453;-75
2022/07/31 10:27:23;;;;;;;3.50;1.60;;;;;;;21.35;100.00;101544.53;10513858;28;20131;-75
2022/07/31 10:32:32;;;;;;;1.80;1.30;;;;;;;21.74;100.00;101545.06;10500188;28;20039;-75
2022/07/31 10:38:35;;;;;;;0.68;0.38;;;;;;;21.42;100.00;101548.84;10505579;28;20126;-75
2022/07/31 10:44:07;;;;;;;1.75;1.02;;;;;;;21.53;100.00;101544.38;10506404;28;20055;-75
2022/07/31 10:49:40;;;;;;;1.75;1.13;;;;;;;21.51;100.00;101546.13;10518318;28;20097;-74
2022/07/31 10:55:00;;;;;;;2.30;1.20;;;;;;;21.27;100.00;101547.22;10519602;28;20039;-76
2022/07/31 11:00:19;;;;;;;1.50;1.05;;;;;;;21.36;100.00;101551.50;10513696;28;20143;-76
2022/07/31 11:05:38;;;;;;;1.75;1.02;;;;;;;21.39;100.00;101541.00;10511164;28;20054;-76
2022/07/31 11:11:38;;;;;;;1.13;1.03;;;;;;;21.52;100.00;101532.16;10502346;28;20189;-75
2022/07/31 11:16:58;;;;;;;2.13;1.40;;;;;;;21.79;100.00;101524.91;10514452;28;20048;-75
2022/07/31 11:22:35;;;;;;;0.65;0.52;;;;;;;22.27;100.00;101526.94;10500896;28;20040;-75
2022/07/31 11:27:37;;;;;;;0.40;0.40;;;;;;;21.68;100.00;101525.00;10513845;28;20513;-76
2022/07/31 11:32:49;;;;;;;1.65;1.30;;;;;;;21.53;100.00;101523.41;10511338;28;20044;-76
2022/07/31 11:37:51;;;;;;;0.90;0.73;;;;;;;21.71;100.00;101511.88;10516321;28;20051;-75
2022/07/31 11:43:00;;;;;;;1.02;0.70;;;;;;;21.74;100.00;101505.72;10524218;28;20114;-76
2022/07/31 11:48:23;;;;;;;0.65;0.65;;;;;;;21.97;100.00;101486.22;10538986;28;20105;-75
2022/07/31 11:53:28;;;;;;;1.48;1.20;;;;;;;22.49;100.00;101493.44;10554014;28;20406;-76
2022/07/31 11:58:30;;;;;;;0.50;0.45;;;;;;;22.27;100.00;101498.06;10529554;28;20440;-76
2022/07/31 12:03:36;;;;;;;1.40;0.75;;;;;;;22.40;100.00;101490.94;10526490;28;20093;-76
2022/07/31 12:08:39;;;;;;;0.85;0.55;;;;;;;22.37;100.00;101498.84;10532554;28;20047;-76
2022/07/31 12:13:44;;;;;;;1.85;0.70;;;;;;;22.22;100.00;101496.44;10516668;28;20089;-76
2022/07/31 12:18:55;;;;;;;0.57;0.57;;;;;;;22.22;100.00;101493.81;10557452;28;20097;-76
2022/07/31 12:23:57;;;;;;;1.50;0.70;;;;;;;22.43;100.00;101493.53;10555290;28;20040;-75
2022/07/31 12:29:04;;;;;;;0.40;0.40;;;;;;;22.67;100.00;101491.44;10557809;28;20113;-76
2022/07/31 12:34:06;;;;;;;0.40;0.40;;;;;;;22.69;100.00;101471.25;10548820;28;20047;-76
2022/07/31 12:39:10;;;;;;;0.17;0.17;;;;;;;23.20;100.00;101456.41;10514170;28;20065;-76
2022/07/31 12:44:12;;;;;;;0.40;0.40;;;;;;;23.24;100.00;101451.09;10514711;28;20044;-75
2022/07/31 12:49:15;;;;;;;1.52;1.05;;;;;;;23.35;100.00;101440.38;10560985;28;20071;-76
2022/07/31 12:54:17;;;;;;;4.43;0.57;;;;;;;23.43;100.00;101443.72;10569771;28;20065;-75
2022/07/31 12:59:18;;;;;;;0.63;0.40;;;;;;;23.88;100.00;101428.78;10547047;28;20063;-76
2022/07/31 13:04:20;;;;;;;0.90;0.60;;;;;;;23.48;100.00;101427.84;10525911;28;20048;-76
2022/07/31 13:09:21;;;;;;;0.70;0.30;;;;;;;23.49;100.00;101428.75;10549162;28;20043;-76
2022/07/31 13:14:23;;;;;;;0.88;0.73;;;;;;;23.34;100.00;101428.13;10566142;28;20082;-76
2022/07/31 13:19:26;;;;;;;0.70;0.28;;;;;;;23.54;100.00;101414.56;10554384;28;20044;-76
2022/07/31 13:24:27;;;;;;;0.95;0.80;;;;;;;23.55;100.00;101418.09;10555387;28;20055;-76
2022/07/31 13:29:29;;;;;;;0.52;0.30;;;;;;;23.44;100.00;101413.91;10550068;28;20050;-76
2022/07/31 13:34:31;;;;;;;0.45;0.35;;;;;;;23.33;100.00;101409.75;10553047;28;20046;-75
2022/07/31 13:39:32;;;;;;;1.10;0.52;;;;;;;23.71;100.00;101403.72;10572981;28;20086;-76
2022/07/31 13:44:34;;;;;;;0.70;0.43;;;;;;;24.35;100.00;101392.66;10576264;28;20059;-76
2022/07/31 13:49:36;;;;;;;2.03;0.70;;;;;;;24.10;100.00;101388.88;10559042;28;20464;-76
2022/07/31 13:54:37;;;;;;;1.50;0.82;;;;;;;23.94;100.00;101386.56;10558905;28;20052;-75
2022/07/31 13:59:39;;;;;;;1.08;0.73;;;;;;;23.84;100.00;101390.31;10547414;28;20060;-76
2022/07/31 14:04:41;;;;;;;0.57;0.38;;;;;;;24.11;100.00;101378.31;10539540;28;20044;-76
2022/07/31 14:09:43;;;;;;;0.50;0.47;;;;;;;24.18;100.00;101384.28;10506665;28;20048;-76
2022/07/31 14:14:56;;;;;;;0.70;0.68;;;;;;;24.25;100.00;101367.44;10557676;28;20480;-76
2022/07/31 14:19:57;;;;;;;0.20;0.17;;;;;;;24.54;100.00;101357.97;10541735;28;20048;-76
2022/07/31 14:24:59;;;;;;;0.68;0.68;;;;;;;24.36;100.00;101357.53;10563583;28;20035;-76
2022/07/31 14:30:01;;;;;;;0.70;0.60;;;;;;;24.91;100.00;101359.66;10510476;28;20066;-76
2022/07/31 14:35:04;;;;;;;1.13;1.00;;;;;;;24.99;100.00;101347.16;10543914;28;20048;-76
2022/07/31 14:40:09;;;;;;;0.60;0.60;;;;;;;25.05;100.00;101345.28;10552564;28;20048;-76
2022/07/31 14:45:11;;;;;;;1.10;0.85;;;;;;;24.77;100.00;101344.25;10526322;28;20039;-76
2022/07/31 14:50:12;;;;;;;0.43;0.43;;;;;;;24.38;100.00;101344.31;10556139;28;20052;-76
2022/07/31 14:55:22;;;;;;;2.15;0.52;;;;;;;24.30;100.00;101352.44;10559841;28;20914;-76
2022/07/31 15:00:24;;;;;;;0.57;0.57;;;;;;;23.14;100.00;101389.91;10560822;28;20048;-76
2022/07/31 15:05:30;;;;;;;6.78;1.10;;;;;;;22.91;100.00;101397.34;10518996;28;20445;-76
2022/07/31 15:10:52;;;;;;;0.90;0.40;;;;;;;22.97;100.00;101399.88;10535398;28;20079;-76
2022/07/31 15:15:55;;;;;;;1.80;0.70;;;;;;;23.13;100.00;101393.44;10532848;28;20048;-76
2022/07/31 15:20:56;;;;;;;1.00;0.70;;;;;;;23.12;100.00;101385.59;10525682;28;20040;-76
2022/07/31 15:25:58;;;;;;;0.52;0.45;;;;;;;23.39;100.00;101372.81;10553238;28;20048;-76
2022/07/31 15:31:00;;;;;;;0.40;0.40;;;;;;;23.50;100.00;101362.97;10552382;28;20043;-76
2022/07/31 15:36:02;;;;;;;0.40;0.25;;;;;;;23.55;100.00;101368.13;10534110;28;20568;-76
2022/07/31 15:41:04;;;;;;;0.45;0.45;;;;;;;23.45;100.00;101368.31;10487646;28;20063;-76
2022/07/31 15:46:07;;;;;;;0.40;0.40;;;;;;;23.38;100.00;101360.59;10513427;28;20090;-76
2022/07/31 15:51:10;;;;;;;7.45;0.98;;;;;;;23.11;100.00;101374.22;10513030;28;20052;-75
2022/07/31 15:56:11;;;;;;;0.20;0.20;;;;;;;23.13;100.00;101396.06;10515411;28;20487;-76
2022/07/31 16:01:13;;;;;;;0.20;0.20;;;;;;;22.53;100.00;101396.22;10515109;28;20036;-76
2022/07/31 16:06:16;;;;;;;0.17;0.17;;;;;;;22.69;100.00;101392.47;10515109;28;20121;-75
2022/07/31 16:11:21;;;;;;;0.20;0.20;;;;;;;22.52;100.00;101394.53;10482240;28;20050;-76
2022/07/31 16:16:22;;;;;;;0.00;0.00;;;;;;;22.52;100.00;101391.91;10520650;28;20407;-76
2022/07/31 16:21:26;;;;;;;0.10;0.10;;;;;;;22.66;100.00;101398.63;10518683;28;20067;-76
2022/07/31 16:26:27;;;;;;;0.22;0.10;;;;;;;22.65;100.00;101396.03;10525563;28;20063;-75
2022/07/31 16:31:29;;;;;;;0.10;0.10;;;;;;;22.45;100.00;101391.97;10542294;28;20036;-76
2022/07/31 16:36:31;;;;;;;0.03;0.03;;;;;;;22.89;100.00;101392.13;10533377;28;20040;-76
2022/07/31 16:41:33;;;;;;;0.75;0.40;;;;;;;22.75;100.00;101387.09;10529374;28;20494;-76
2022/07/31 16:46:34;;;;;;;0.10;0.10;;;;;;;22.71;100.00;101379.31;10543002;28;20062;-76
2022/07/31 16:51:36;;;;;;;1.08;0.32;;;;;;;22.69;100.00;101376.69;10524171;28;20502;-76
2022/07/31 16:56:38;;;;;;;0.13;0.13;;;;;;;22.60;100.00;101371.63;10534753;28;20055;-75
2022/07/31 17:01:39;;;;;;;0.20;0.20;;;;;;;22.32;100.00;101377.28;10523990;28;20475;-75
2022/07/31 17:07:00;;;;;;;0.15;0.15;;;;;;;22.22;100.00;101379.19;10545794;28;20187;-75
2022/07/31 17:12:03;;;;;;;0.05;0.05;;;;;;;22.26;100.00;101370.38;10541946;28;20350;-75
2022/07/31 17:17:05;;;;;;;0.30;0.10;;;;;;;22.00;100.00;101381.28;10543602;28;20071;-74
2022/07/31 17:22:08;;;;;;;0.30;0.20;;;;;;;21.43;100.00;101401.16;10553555;28;20048;-74
2022/07/31 17:27:12;;;;;;;0.22;0.22;;;;;;;21.15;100.00;101427.69;10522792;28;20054;-75
2022/07/31 17:32:13;;;;;;;0.05;0.05;;;;;;;20.69;100.00;101446.38;10511952;28;20090;-75
2022/07/31 17:37:18;;;;;;;0.20;0.10;;;;;;;20.85;100.00;101466.34;10516526;28;20051;-75
2022/07/31 17:42:23;;;;;;;0.20;0.20;;;;;;;20.79;100.00;101455.94;10521885;28;20059;-74
2022/07/31 17:47:36;;;;;;;0.13;0.10;;;;;;;20.88;100.00;101463.72;10543961;28;20479;-75
2022/07/31 17:52:38;;;;;;;0.10;0.10;;;;;;;21.02;100.00;101449.63;10534280;28;20043;-75
2022/07/31 17:57:41;;;;;;;0.08;0.08;;;;;;;21.00;100.00;101449.63;10544378;28;20036;-74
2022/07/31 18:02:47;;;;;;;0.00;0.00;;;;;;;21.20;100.00;101431.09;10536549;28;20048;-75
2022/07/31 18:07:48;;;;;;;0.20;0.00;;;;;;;21.29;100.00;101434.53;10537633;28;20077;-74
2022/07/31 18:12:54;;;;;;;0.10;0.10;;;;;;;21.16;100.00;101445.13;10544026;28;20425;-75
2022/07/31 18:17:58;;;;;;;0.65;0.65;;;;;;;21.03;100.00;101443.53;10539461;28;20414;-75
2022/07/31 18:23:04;;;;;;;0.70;0.43;;;;;;;21.04;100.00;101440.00;10554190;28;20040;-75
2022/07/31 18:28:10;;;;;;;1.20;0.28;;;;;;;21.13;100.00;101450.41;10540127;28;20138;-74
2022/07/31 18:33:13;;;;;;;2.92;0.55;;;;;;;21.20;100.00;101454.69;10545430;28;20372;-75
2022/07/31 18:38:17;;;;;;;0.70;0.43;;;;;;;21.16;100.00;101453.00;10553267;28;20051;-74
2022/07/31 18:43:19;;;;;;;0.10;0.10;;;;;;;21.14;100.00;101452.13;10535517;28;20119;-75
2022/07/31 18:48:20;;;;;;;0.90;0.45;;;;;;;21.08;100.00;101452.19;10520712;28;20062;-74
2022/07/31 18:53:22;;;;;;;0.13;0.10;;;;;;;21.07;100.00;101447.84;10552362;28;20044;-74
2022/07/31 18:58:23;;;;;;;0.50;0.50;;;;;;;21.03;100.00;101460.09;10519757;28;20044;-75
2022/07/31 19:03:25;;;;;;;1.00;0.50;;;;;;;21.07;100.00;101450.47;10526798;28;20643;-74
2022/07/31 19:08:27;;;;;;;1.20;0.75;;;;;;;21.00;100.00;101456.63;10528942;28;20052;-75
2022/07/31 19:13:29;;;;;;;2.13;0.28;;;;;;;20.92;100.00;101452.31;10531116;28;20517;-75
2022/07/31 19:18:30;;;;;;;1.00;0.50;;;;;;;20.94;100.00;101464.56;10536131;28;20127;-76
2022/07/31 19:23:32;;;;;;;0.85;0.40;;;;;;;20.89;100.00;101468.06;10524143;28;20036;-74
2022/07/31 19:28:35;;;;;;;1.35;0.55;;;;;;;20.71;100.00;101478.66;10536132;28;20047;-75
2022/07/31 19:33:36;;;;;;;0.10;0.10;;;;;;;20.72;100.00;101496.09;10530948;28;20051;-74
2022/07/31 19:38:43;;;;;;;0.38;0.38;;;;;;;20.51;100.00;101508.47;10525719;28;20048;-75
2022/07/31 19:43:45;;;;;;;0.43;0.17;;;;;;;20.67;100.00;101510.97;10519447;28;20051;-75
2022/07/31 19:48:49;;;;;;;0.20;0.20;;;;;;;20.51;100.00;101512.81;10511572;28;20040;-75
2022/07/31 19:53:51;;;;;;;1.27;0.90;;;;;;;20.65;100.00;101518.81;10518246;28;20058;-75
2022/07/31 19:58:52;;;;;;;0.88;0.55;;;;;;;20.43;100.00;101523.34;10540786;28;20123;-75
2022/07/31 20:03:59;;;;;;;0.25;0.22;;;;;;;20.48;100.00;101524.16;10505501;28;20062;-74
2022/07/31 20:09:02;;;;;;;1.15;0.80;;;;;;;20.40;100.00;101528.56;10527733;28;20041;-75
2022/07/31 20:14:04;;;;;;;0.80;0.38;;;;;;;20.53;100.00;101526.75;10524163;28;20041;-76
2022/07/31 20:19:06;;;;;;;1.75;0.88;;;;;;;20.50;100.00;101527.66;10515537;28;20452;-76
2022/07/31 20:24:08;;;;;;;0.28;0.20;;;;;;;20.33;100.00;101537.34;10508273;28;20086;-75
2022/07/31 20:29:09;;;;;;;0.43;0.30;;;;;;;20.56;100.00;101527.63;10516988;28;20450;-76
2022/07/31 20:34:11;;;;;;;1.38;0.60;;;;;;;20.52;100.00;101531.13;10535618;28;20036;-75
2022/07/31 20:39:13;;;;;;;3.38;0.75;;;;;;;20.34;100.00;101541.69;10535112;28;20094;-76
2022/07/31 20:44:15;;;;;;;9.70;1.48;;;;;;;20.50;100.00;101543.34;10523095;28;20059;-76
2022/07/31 20:49:16;;;;;;;0.47;0.35;;;;;;;20.42;100.00;101555.63;10517009;28;20056;-75
2022/07/31 20:54:36;;;;;;;1.20;0.63;;;;;;;20.53;100.00;101543.31;10535786;28;20616;-76
2022/07/31 20:59:37;;;;;;;0.63;0.63;;;;;;;20.56;100.00;101545.06;10531892;28;20143;-76
2022/07/31 21:04:39;;;;;;;0.10;0.10;;;;;;;20.59;100.00;101556.38;10537832;28;20032;-76
2022/07/31 21:09:41;;;;;;;0.65;0.32;;;;;;;20.52;100.00;101562.53;10540616;28;20036;-76
2022/07/31 21:14:43;;;;;;;1.23;0.60;;;;;;;20.63;100.00;101553.75;10521323;28;20487;-76
2022/07/31 21:19:44;;;;;;;0.73;0.50;;;;;;;20.67;100.00;101556.34;10510644;28;20427;-76
2022/07/31 21:24:46;;;;;;;1.10;0.68;;;;;;;20.52;100.00;101562.53;10524224;28;20414;-76
2022/07/31 21:29:48;;;;;;;1.00;0.75;;;;;;;20.36;100.00;101581.81;10541601;28;20454;-76
2022/07/31 21:34:56;;;;;;;1.65;0.73;;;;;;;20.37;100.00;101579.19;10541731;28;20582;-76
2022/07/31 21:39:58;;;;;;;3.03;0.40;;;;;;;20.42;100.00;101585.25;10541791;28;20051;-75
2022/07/31 21:45:00;;;;;;;1.75;0.63;;;;;;;20.28;100.00;101587.06;10523538;28;20491;-74
2022/07/31 21:50:05;;;;;;;0.32;0.32;;;;;;;20.34;100.00;101588.78;10529264;28;20040;-75
2022/07/31 21:55:07;;;;;;;0.50;0.50;;;;;;;20.28;100.00;101601.03;10564138;28;20605;-75
2022/07/31 22:00:12;;;;;;;0.43;0.43;;;;;;;20.29;100.00;101607.13;10533689;28;20829;-76
2022/07/31 22:10:34;;;;;;;1.13;0.80;;;;;;;20.44;100.00;101601.84;10527645;28;20050;-76
2022/07/31 22:15:37;;;;;;;1.20;0.93;;;;;;;20.45;100.00;101602.69;10530640;28;20074;-76
2022/07/31 22:21:02;;;;;;;0.20;0.20;;;;;;;20.48;100.00;101607.06;10507494;28;20040;-76
2022/07/31 22:26:04;;;;;;;1.10;0.77;;;;;;;20.20;100.00;101620.22;10533283;28;20043;-76
2022/07/31 22:31:09;;;;;;;1.17;0.65;;;;;;;20.35;100.00;101617.56;10547386;28;20048;-76
2022/07/31 22:36:11;;;;;;;0.73;0.52;;;;;;;20.36;100.00;101613.22;10529652;28;20066;-76
2022/07/31 22:41:13;;;;;;;0.22;0.20;;;;;;;20.33;100.00;101613.22;10518448;28;20055;-76
2022/07/31 22:46:15;;;;;;;1.45;1.17;;;;;;;20.42;100.00;101613.19;10537070;28;20108;-76
2022/07/31 22:51:17;;;;;;;0.30;0.30;;;;;;;20.40;100.00;101609.69;10519805;28;20043;-76
2022/07/31 22:56:21;;;;;;;0.75;0.60;;;;;;;20.20;100.00;101626.34;10538436;28;20055;-76
2022/07/31 23:01:23;;;;;;;0.05;0.05;;;;;;;20.22;100.00;101631.56;10546407;28;20170;-76
2022/07/31 23:06:25;;;;;;;1.33;0.60;;;;;;;20.28;100.00;101629.81;10519071;28;20048;-75
2022/07/31 23:11:32;;;;;;;1.15;0.93;;;;;;;20.23;100.00;101628.94;10550598;28;20043;-76
2022/07/31 23:16:34;;;;;;;0.43;0.22;;;;;;;20.11;100.00;101639.44;10539639;28;20040;-76
2022/07/31 23:21:36;;;;;;;0.40;0.38;;;;;;;19.91;100.00;101656.03;10519508;28;20048;-76
2022/07/31 23:26:39;;;;;;;2.13;0.80;;;;;;;19.90;100.00;101662.13;10538149;28;20036;-76